Time;durP1;ratioP1;P1;durP2;ratioP2;P2;SDS_P1;SDS_P2;PMS_P1;PMS_P2;Temp;Humidity;BMP_temperature;BMP_pressure;BME280_temperature;BME280_humidity;BME280_pressure;Samples;Min_cycle;Max_cycle;Signal;HPM_P1;HPM_P2
2023/05/23 00:01:53;;;;;;;31.55;17.27;;;13.60;99.90;;;;;;4998762;28;20827;-77
2023/05/23 00:04:19;;;;;;;32.22;16.90;;;13.50;99.90;;;;;;5016320;28;20439;-83
2023/05/23 00:06:45;;;;;;;29.75;16.50;;;13.70;99.90;;;;;;5015978;28;20439;-83
2023/05/23 00:09:13;;;;;;;25.27;14.18;;;13.70;99.90;;;;;;5007320;28;20429;-80
2023/05/23 00:11:43;;;;;;;22.42;14.60;;;13.50;99.90;;;;;;5008992;28;20420;-80
2023/05/23 00:14:10;;;;;;;17.58;13.68;;;13.50;99.90;;;;;;5009299;28;20434;-80
2023/05/23 00:16:40;;;;;;;24.63;14.50;;;13.40;99.90;;;;;;4990763;28;20424;-85
2023/05/23 00:19:05;;;;;;;18.70;12.95;;;13.30;99.90;;;;;;4999660;28;20778;-82
2023/05/23 00:21:32;;;;;;;20.65;13.13;;;13.20;99.90;;;;;;5006436;28;20432;-84
2023/05/23 00:23:58;;;;;;;22.38;14.07;;;13.40;99.90;;;;;;4988843;28;20429;-88
2023/05/23 00:26:24;;;;;;;24.73;14.15;;;13.30;99.90;;;;;;4974748;28;20759;-85
2023/05/23 00:28:50;;;;;;;23.80;15.07;;;13.20;99.90;;;;;;5009382;28;20892;-83
2023/05/23 00:31:16;;;;;;;29.20;15.87;;;13.20;99.90;;;;;;5009071;28;20419;-78
2023/05/23 00:33:42;;;;;;;25.02;14.20;;;13.10;99.90;;;;;;5007220;28;20453;-83
2023/05/23 00:36:08;;;;;;;28.83;15.95;;;13.20;99.90;;;;;;5005896;28;20448;-81
2023/05/23 00:38:33;;;;;;;24.02;14.57;;;13.10;99.90;;;;;;5008082;28;20487;-76
2023/05/23 00:41:00;;;;;;;21.83;12.53;;;13.10;99.90;;;;;;5009627;28;20429;-82
2023/05/23 00:43:26;;;;;;;23.55;13.00;;;13.20;99.90;;;;;;5006706;28;20443;-81
2023/05/23 00:45:52;;;;;;;19.88;12.23;;;13.10;99.90;;;;;;5009644;28;20771;-83
2023/05/23 00:48:17;;;;;;;20.50;11.23;;;13.30;99.90;;;;;;5007028;28;20432;-78
2023/05/23 00:50:44;;;;;;;22.80;11.53;;;13.30;99.90;;;;;;5006048;28;20498;-81
2023/05/23 00:53:11;;;;;;;24.10;11.18;;;13.10;99.90;;;;;;5007850;28;20460;-80
2023/05/23 00:55:38;;;;;;;24.73;12.75;;;13.20;99.90;;;;;;5007351;28;20437;-83
2023/05/23 00:58:04;;;;;;;23.77;10.82;;;13.20;99.90;;;;;;5008505;28;20420;-85
2023/05/23 01:00:32;;;;;;;27.95;11.30;;;13.00;99.90;;;;;;5009585;28;20442;-79
2023/05/23 01:02:59;;;;;;;21.70;11.00;;;12.90;99.90;;;;;;4994555;28;20523;-84
2023/05/23 01:05:25;;;;;;;19.77;11.32;;;13.10;99.90;;;;;;5006107;28;20883;-77
2023/05/23 01:07:51;;;;;;;21.95;12.02;;;13.00;99.90;;;;;;5008674;28;20464;-84
2023/05/23 01:10:25;;;;;;;26.85;11.27;;;12.90;99.90;;;;;;5006445;28;20855;-84
2023/05/23 01:13:05;;;;;;;26.50;13.23;;;13.00;99.90;;;;;;5007867;28;20613;-80
2023/05/23 01:16:00;;;;;;;26.08;12.02;;;12.90;99.90;;;;;;5007017;28;20479;-77
2023/05/23 01:18:40;;;;;;;29.40;13.82;;;13.00;99.90;;;;;;4989647;28;20412;-80
2023/05/23 01:21:11;;;;;;;25.88;13.23;;;12.70;99.90;;;;;;5005312;28;20986;-81
2023/05/23 01:23:58;;;;;;;26.65;13.20;;;12.80;99.90;;;;;;5006451;28;20471;-82
2023/05/23 01:26:52;;;;;;;24.98;13.45;;;12.80;99.90;;;;;;4998399;28;20491;-82
2023/05/23 01:29:51;;;;;;;22.73;12.88;;;12.80;99.90;;;;;;4996871;28;20456;-77
2023/05/23 01:32:18;;;;;;;26.80;12.82;;;12.80;99.90;;;;;;4994233;28;20428;-79
2023/05/23 01:34:45;;;;;;;27.88;12.95;;;12.80;99.90;;;;;;5008643;28;20490;-86
2023/05/23 01:37:13;;;;;;;30.65;14.55;;;12.90;99.90;;;;;;5008107;28;20478;-84
2023/05/23 01:39:39;;;;;;;30.10;14.93;;;12.60;99.90;;;;;;5007248;28;20431;-81
2023/05/23 01:42:06;;;;;;;32.80;13.88;;;12.60;99.90;;;;;;5008939;28;20416;-81
2023/05/23 01:44:33;;;;;;;28.83;14.15;;;12.60;99.90;;;;;;4995047;28;20922;-84
2023/05/23 01:47:01;;;;;;;26.63;12.35;;;12.70;99.90;;;;;;5007060;28;20548;-82
2023/05/23 01:49:28;;;;;;;27.15;13.55;;;12.40;99.90;;;;;;5006714;28;20432;-80
2023/05/23 01:51:54;;;;;;;32.03;14.10;;;12.60;99.90;;;;;;5011128;28;20470;-81
2023/05/23 01:54:19;;;;;;;28.67;12.85;;;12.40;99.90;;;;;;5016597;28;20523;-84
2023/05/23 01:56:47;;;;;;;24.02;12.52;;;12.50;99.90;;;;;;5017841;28;20420;-77
2023/05/23 01:59:13;;;;;;;25.88;12.07;;;12.50;99.90;;;;;;5016698;28;20780;-78
2023/05/23 02:01:39;;;;;;;29.23;12.53;;;12.50;99.90;;;;;;5012016;28;20429;-82
2023/05/23 02:04:05;;;;;;;30.70;13.35;;;12.60;99.90;;;;;;5011491;28;21022;-83
2023/05/23 02:06:31;;;;;;;25.08;11.32;;;12.40;99.90;;;;;;5001410;28;20430;-82
2023/05/23 02:08:57;;;;;;;27.00;12.18;;;12.60;99.90;;;;;;5008157;28;20432;-83
2023/05/23 02:11:22;;;;;;;27.63;11.88;;;12.50;99.90;;;;;;5008457;28;20463;-81
2023/05/23 02:13:48;;;;;;;27.67;10.57;;;12.60;99.90;;;;;;4993002;28;20420;-80
2023/05/23 02:16:14;;;;;;;19.57;10.37;;;12.50;99.90;;;;;;5002805;28;20433;-82
2023/05/23 02:18:40;;;;;;;25.58;10.48;;;12.30;99.90;;;;;;5001584;28;20511;-81
2023/05/23 02:21:05;;;;;;;20.47;9.93;;;12.30;99.90;;;;;;5000020;28;20522;-82
2023/05/23 02:23:31;;;;;;;23.27;11.63;;;12.50;99.90;;;;;;4990433;28;20485;-84
2023/05/23 02:25:57;;;;;;;22.77;10.37;;;12.50;99.90;;;;;;4973513;28;20543;-81
2023/05/23 02:28:22;;;;;;;21.92;9.30;;;12.50;99.90;;;;;;5006215;28;20424;-84
2023/05/23 02:30:48;;;;;;;26.35;9.77;;;12.60;99.90;;;;;;5007162;28;20432;-81
2023/05/23 02:33:15;;;;;;;21.57;9.07;;;12.50;99.90;;;;;;5010005;28;20434;-81
2023/05/23 02:35:41;;;;;;;24.08;8.52;;;12.40;99.90;;;;;;5009096;28;20460;-78
2023/05/23 02:38:06;;;;;;;23.48;10.38;;;12.60;99.90;;;;;;4979781;28;20903;-82
2023/05/23 02:40:32;;;;;;;21.80;9.63;;;12.60;99.90;;;;;;4996680;28;20575;-83
2023/05/23 02:42:58;;;;;;;22.87;8.50;;;12.50;99.90;;;;;;5008154;28;20514;-78
2023/05/23 02:45:23;;;;;;;26.55;9.73;;;12.50;99.90;;;;;;5003742;28;20515;-80
2023/05/23 02:47:49;;;;;;;21.83;9.43;;;12.50;99.90;;;;;;4995253;28;20432;-84
2023/05/23 02:50:15;;;;;;;24.60;9.63;;;12.50;99.90;;;;;;5009754;28;20507;-78
2023/05/23 02:52:41;;;;;;;29.50;10.35;;;12.40;99.90;;;;;;5010179;28;20456;-84
2023/05/23 02:55:07;;;;;;;20.52;9.52;;;12.30;99.90;;;;;;4995703;28;20451;-78
2023/05/23 02:57:33;;;;;;;21.60;9.50;;;12.40;99.90;;;;;;5014792;28;20428;-82
2023/05/23 02:59:59;;;;;;;21.77;9.70;;;12.40;99.90;;;;;;5019583;28;20911;-81
2023/05/23 03:02:24;;;;;;;23.73;9.33;;;12.40;99.90;;;;;;5003279;28;21636;-84
2023/05/23 03:04:50;;;;;;;22.88;9.63;;;12.40;99.90;;;;;;5010537;28;20904;-85
2023/05/23 03:07:16;;;;;;;23.17;9.85;;;12.30;99.90;;;;;;5004453;28;20522;-81
2023/05/23 03:09:41;;;;;;;21.60;9.93;;;12.40;99.90;;;;;;5007105;28;20714;-81
2023/05/23 03:12:07;;;;;;;21.37;8.90;;;12.40;99.90;;;;;;4987614;28;20976;-85
2023/05/23 03:14:32;;;;;;;19.08;8.65;;;12.40;99.90;;;;;;5001831;28;20441;-80
2023/05/23 03:16:59;;;;;;;23.15;8.32;;;12.30;99.90;;;;;;5009215;28;21018;-82
2023/05/23 03:19:24;;;;;;;18.38;7.55;;;12.30;99.90;;;;;;4999982;28;20482;-79
2023/05/23 03:21:51;;;;;;;23.03;9.33;;;12.40;99.90;;;;;;5020570;28;20456;-80
2023/05/23 03:24:17;;;;;;;21.33;7.25;;;12.30;99.90;;;;;;5020609;28;20452;-77
2023/05/23 03:26:44;;;;;;;18.83;7.22;;;12.20;99.90;;;;;;4995686;28;20475;-84
2023/05/23 03:29:10;;;;;;;18.45;5.95;;;12.30;99.90;;;;;;5023474;28;20439;-79
2023/05/23 03:31:36;;;;;;;23.15;6.22;;;12.10;99.90;;;;;;5018514;28;20424;-82
2023/05/23 03:34:04;;;;;;;21.17;6.80;;;12.30;99.90;;;;;;5016685;28;20436;-81
2023/05/23 03:36:32;;;;;;;18.60;6.33;;;12.10;99.90;;;;;;5012903;28;20417;-80
2023/05/23 03:38:58;;;;;;;19.90;6.35;;;12.30;99.90;;;;;;5028785;28;20428;-78
2023/05/23 03:41:25;;;;;;;18.15;6.03;;;12.30;99.90;;;;;;5000699;28;20481;-80
2023/05/23 03:43:50;;;;;;;19.87;6.30;;;12.10;99.90;;;;;;4997004;28;20515;-83
2023/05/23 03:46:16;;;;;;;19.13;7.10;;;12.20;99.90;;;;;;5011232;28;20507;-82
2023/05/23 03:48:42;;;;;;;16.33;6.83;;;12.10;99.90;;;;;;5010958;28;20930;-85
2023/05/23 03:51:07;;;;;;;19.92;6.47;;;12.10;99.90;;;;;;4980739;28;20953;-82
2023/05/23 03:53:33;;;;;;;15.93;5.55;;;12.00;99.90;;;;;;5008937;28;20428;-77
2023/05/23 03:55:58;;;;;;;14.67;6.40;;;11.90;99.90;;;;;;5008045;28;20428;-84
2023/05/23 03:58:24;;;;;;;18.43;7.07;;;11.90;99.90;;;;;;5004022;28;20420;-82
2023/05/23 04:00:51;;;;;;;19.53;7.70;;;11.80;99.90;;;;;;5008878;28;20492;-77
2023/05/23 04:03:17;;;;;;;17.92;8.57;;;11.80;99.90;;;;;;5015910;28;20428;-82
2023/05/23 04:05:43;;;;;;;21.53;8.10;;;11.80;99.90;;;;;;5009357;28;20494;-83
2023/05/23 04:08:09;;;;;;;22.50;8.83;;;11.90;99.90;;;;;;5009798;28;20858;-85
2023/05/23 04:10:35;;;;;;;17.07;6.97;;;11.90;99.90;;;;;;4976292;28;20507;-80
2023/05/23 04:13:00;;;;;;;17.23;6.27;;;11.90;99.90;;;;;;5008223;28;20433;-82
2023/05/23 04:15:26;;;;;;;17.30;7.40;;;11.90;99.90;;;;;;5008604;28;20432;-81
2023/05/23 04:17:53;;;;;;;17.60;7.17;;;11.90;99.90;;;;;;5008920;28;20424;-82
2023/05/23 04:20:18;;;;;;;16.60;6.07;;;11.90;99.90;;;;;;5010986;28;20785;-85
2023/05/23 04:22:44;;;;;;;15.23;5.32;;;11.90;99.90;;;;;;5009864;28;20421;-83
2023/05/23 04:25:10;;;;;;;24.10;7.00;;;11.90;99.90;;;;;;5007420;28;20482;-80
2023/05/23 04:27:38;;;;;;;17.27;6.45;;;12.00;99.90;;;;;;4988645;28;20456;-79
2023/05/23 04:30:07;;;;;;;14.98;5.18;;;12.00;99.90;;;;;;5009572;28;20436;-84
2023/05/23 04:32:33;;;;;;;23.70;7.68;;;12.10;99.90;;;;;;5008885;28;21018;-83
2023/05/23 04:35:01;;;;;;;15.68;6.70;;;12.00;99.90;;;;;;5010524;28;20507;-77
2023/05/23 04:37:27;;;;;;;18.70;7.38;;;11.80;99.90;;;;;;5009880;28;21034;-82
2023/05/23 04:39:53;;;;;;;15.82;5.55;;;11.70;99.90;;;;;;5009658;28;20420;-84
2023/05/23 04:42:23;;;;;;;18.58;6.03;;;11.60;99.90;;;;;;5009495;28;20421;-78
2023/05/23 04:44:50;;;;;;;16.70;5.68;;;11.50;99.90;;;;;;4999955;28;20441;-82
2023/05/23 04:47:16;;;;;;;15.77;5.80;;;11.70;99.90;;;;;;5023835;28;20412;-83
2023/05/23 04:49:42;;;;;;;15.23;5.53;;;11.70;99.90;;;;;;5015310;28;20436;-78
2023/05/23 04:52:07;;;;;;;17.90;7.20;;;11.50;99.90;;;;;;5007856;28;20436;-83
2023/05/23 04:54:33;;;;;;;18.08;6.95;;;11.60;99.90;;;;;;5008888;28;20433;-83
2023/05/23 04:56:59;;;;;;;17.02;6.32;;;11.60;99.90;;;;;;5007788;28;20439;-85
2023/05/23 04:59:25;;;;;;;17.42;6.75;;;11.50;99.90;;;;;;5008253;28;20424;-82
2023/05/23 05:01:51;;;;;;;14.82;5.78;;;11.30;99.90;;;;;;4990698;28;20925;-82
2023/05/23 05:04:17;;;;;;;15.23;5.93;;;11.30;99.90;;;;;;5009842;28;20447;-83
2023/05/23 05:06:42;;;;;;;15.05;5.82;;;11.40;99.90;;;;;;5008314;28;20452;-84
2023/05/23 05:09:08;;;;;;;17.60;6.13;;;11.30;99.90;;;;;;4996714;28;20474;-83
2023/05/23 05:11:34;;;;;;;16.77;6.28;;;11.40;99.90;;;;;;5006536;28;20440;-86
2023/05/23 05:13:59;;;;;;;17.85;6.07;;;11.40;99.90;;;;;;5007702;28;20511;-82
2023/05/23 05:16:25;;;;;;;17.63;6.17;;;11.20;99.90;;;;;;5008342;28;20425;-84
2023/05/23 05:18:51;;;;;;;17.88;6.80;;;11.30;99.90;;;;;;5007090;28;20439;-85
2023/05/23 05:21:17;;;;;;;16.23;6.78;;;11.30;99.90;;;;;;5008305;28;20416;-83
2023/05/23 05:23:42;;;;;;;16.10;7.27;;;11.30;99.90;;;;;;4990021;28;20760;-86
2023/05/23 05:26:08;;;;;;;17.37;6.37;;;11.30;99.90;;;;;;5008085;28;20908;-83
2023/05/23 05:28:35;;;;;;;16.85;7.25;;;11.20;99.90;;;;;;5007313;28;20468;-83
2023/05/23 05:31:03;;;;;;;15.98;6.80;;;11.20;99.90;;;;;;5007554;28;20421;-84
2023/05/23 05:33:34;;;;;;;17.10;6.13;;;11.20;99.90;;;;;;4990157;28;20421;-84
2023/05/23 05:36:01;;;;;;;15.57;6.35;;;11.30;99.90;;;;;;5008271;28;20425;-82
2023/05/23 05:38:26;;;;;;;16.17;6.55;;;11.20;99.90;;;;;;5006997;28;20427;-84
2023/05/23 05:40:52;;;;;;;18.23;5.97;;;11.20;99.90;;;;;;5006914;28;20432;-86
2023/05/23 05:43:18;;;;;;;14.00;6.10;;;11.30;99.90;;;;;;5008054;28;20434;-83
2023/05/23 05:45:43;;;;;;;14.02;5.88;;;11.40;99.90;;;;;;4985848;28;20803;-82
2023/05/23 05:48:10;;;;;;;17.45;5.97;;;11.60;99.90;;;;;;4999450;28;20507;-83
2023/05/23 05:50:36;;;;;;;19.65;5.10;;;11.30;99.90;;;;;;5006479;28;20516;-85
2023/05/23 05:53:02;;;;;;;19.00;6.03;;;11.30;99.90;;;;;;5007699;28;20424;-81
2023/05/23 05:55:28;;;;;;;17.20;5.85;;;11.20;99.90;;;;;;5008977;28;20923;-82
2023/05/23 05:57:54;;;;;;;16.57;5.30;;;11.10;99.90;;;;;;5009083;28;20455;-85
2023/05/23 06:00:20;;;;;;;16.38;5.53;;;11.30;99.90;;;;;;5010222;28;20432;-84
2023/05/23 06:02:46;;;;;;;13.85;5.70;;;11.10;99.90;;;;;;5008535;28;20454;-81
2023/05/23 06:05:15;;;;;;;17.27;5.25;;;11.30;99.90;;;;;;5011876;28;20443;-84
2023/05/23 06:07:41;;;;;;;17.47;4.10;;;11.00;99.90;;;;;;5010415;28;20425;-85
2023/05/23 06:10:07;;;;;;;16.33;5.00;;;11.00;99.90;;;;;;5015273;28;20439;-81
2023/05/23 06:12:34;;;;;;;17.70;4.68;;;10.90;99.90;;;;;;5008689;28;20930;-83
2023/05/23 06:15:00;;;;;;;21.65;6.65;;;11.00;99.90;;;;;;5025337;28;20439;-81
2023/05/23 06:17:26;;;;;;;15.40;4.00;;;11.10;99.90;;;;;;5017316;28;20429;-82
2023/05/23 06:19:52;;;;;;;16.98;4.40;;;11.00;99.90;;;;;;5020101;28;20440;-84
2023/05/23 06:22:18;;;;;;;16.40;4.63;;;11.10;99.90;;;;;;5019597;28;20415;-81
2023/05/23 06:24:44;;;;;;;21.98;5.40;;;11.10;99.90;;;;;;5017777;28;20451;-81
2023/05/23 06:27:09;;;;;;;20.00;4.40;;;11.30;99.90;;;;;;5013607;28;20401;-80
2023/05/23 06:29:35;;;;;;;20.35;5.28;;;11.30;99.90;;;;;;5016117;28;20428;-83
2023/05/23 06:32:01;;;;;;;19.90;5.13;;;11.40;99.90;;;;;;5023716;28;20416;-79
2023/05/23 06:34:27;;;;;;;21.80;5.18;;;11.40;99.90;;;;;;5007905;28;20440;-84
2023/05/23 06:36:53;;;;;;;18.20;4.47;;;11.40;99.90;;;;;;5004939;28;20420;-83
2023/05/23 06:39:19;;;;;;;17.42;4.70;;;11.30;99.90;;;;;;4990825;28;20437;-85
2023/05/23 06:41:46;;;;;;;18.07;3.97;;;11.40;99.90;;;;;;5009912;28;20451;-81
2023/05/23 06:44:11;;;;;;;15.27;4.22;;;11.50;99.90;;;;;;5011182;28;20439;-83
2023/05/23 06:46:37;;;;;;;21.23;4.73;;;11.80;99.90;;;;;;5003993;28;20532;-79
2023/05/23 06:49:03;;;;;;;26.83;5.38;;;11.90;99.90;;;;;;5014055;28;20411;-81
2023/05/23 06:51:28;;;;;;;16.10;4.70;;;11.70;99.90;;;;;;5009320;28;20441;-84
2023/05/23 06:53:55;;;;;;;17.15;4.70;;;11.80;99.90;;;;;;5001383;28;20773;-84
2023/05/23 06:56:22;;;;;;;22.50;5.73;;;11.80;99.90;;;;;;4994853;28;20580;-86
2023/05/23 06:58:48;;;;;;;16.23;5.35;;;11.70;99.90;;;;;;4963481;28;20420;-83
2023/05/23 07:01:14;;;;;;;17.55;5.25;;;11.90;99.90;;;;;;4976803;28;20423;-83
2023/05/23 07:03:42;;;;;;;17.77;4.28;;;11.90;99.90;;;;;;4977485;28;20436;-85
2023/05/23 07:06:07;;;;;;;13.90;3.92;;;11.70;99.90;;;;;;5008713;28;20574;-86
2023/05/23 07:08:33;;;;;;;18.75;4.35;;;11.70;99.90;;;;;;4991000;28;20428;-85
2023/05/23 07:10:59;;;;;;;15.45;4.72;;;11.70;99.90;;;;;;4990039;28;20456;-76
2023/05/23 07:13:25;;;;;;;20.75;5.03;;;11.70;99.90;;;;;;5008091;28;20503;-82
2023/05/23 07:15:50;;;;;;;20.70;5.20;;;11.80;99.90;;;;;;5007228;28;20429;-81
2023/05/23 07:18:16;;;;;;;16.00;4.27;;;11.70;99.90;;;;;;5008087;28;20486;-83
2023/05/23 07:20:42;;;;;;;18.47;4.03;;;11.70;99.90;;;;;;5007125;28;20969;-82
2023/05/23 07:23:07;;;;;;;19.60;4.97;;;11.60;99.90;;;;;;5008744;28;20914;-81
2023/05/23 07:25:33;;;;;;;17.50;5.13;;;11.70;99.90;;;;;;5008996;28;20437;-83
2023/05/23 07:27:59;;;;;;;14.65;3.90;;;11.70;99.90;;;;;;4993484;28;20413;-87
2023/05/23 07:30:25;;;;;;;20.00;3.85;;;11.60;99.90;;;;;;5019293;28;20437;-82
2023/05/23 07:32:54;;;;;;;21.77;4.40;;;11.70;99.90;;;;;;5026842;28;20430;-82
2023/05/23 07:35:24;;;;;;;16.17;4.15;;;11.90;99.90;;;;;;5011633;28;20430;-81
2023/05/23 07:37:53;;;;;;;26.38;5.28;;;11.80;99.90;;;;;;4989994;28;20936;-84
2023/05/23 07:40:19;;;;;;;27.17;5.03;;;11.80;99.90;;;;;;5006160;28;20473;-82
2023/05/23 07:42:45;;;;;;;21.30;5.32;;;11.80;99.90;;;;;;4989295;28;20897;-80
2023/05/23 07:45:11;;;;;;;16.67;4.70;;;12.10;99.90;;;;;;4995290;28;20436;-83
2023/05/23 07:47:36;;;;;;;20.27;4.18;;;12.20;99.90;;;;;;5020596;28;20509;-83
2023/05/23 07:50:03;;;;;;;19.90;4.32;;;12.30;99.90;;;;;;5020193;28;20768;-79
2023/05/23 07:52:30;;;;;;;21.50;5.53;;;12.40;99.90;;;;;;4989649;28;20489;-83
2023/05/23 07:54:57;;;;;;;20.77;5.13;;;12.40;99.90;;;;;;5007487;28;20502;-81
2023/05/23 07:57:26;;;;;;;17.67;4.93;;;12.20;99.90;;;;;;5022183;28;20469;-80
2023/05/23 07:59:53;;;;;;;21.75;5.55;;;12.20;99.90;;;;;;5022510;28;20755;-82
2023/05/23 08:02:19;;;;;;;21.77;4.88;;;12.10;99.90;;;;;;5009077;28;20515;-84
2023/05/23 08:04:46;;;;;;;15.85;4.40;;;12.10;99.90;;;;;;5016994;28;20756;-79
2023/05/23 08:07:12;;;;;;;18.85;5.15;;;12.40;99.90;;;;;;4991858;28;20459;-82
2023/05/23 08:09:41;;;;;;;18.97;4.53;;;12.80;99.90;;;;;;5009668;28;20476;-82
2023/05/23 08:12:08;;;;;;;18.17;4.35;;;12.80;99.90;;;;;;5009924;28;20840;-84
2023/05/23 08:14:34;;;;;;;22.00;6.20;;;12.90;99.90;;;;;;5008721;28;20579;-81
2023/05/23 08:17:01;;;;;;;21.42;4.95;;;12.70;99.90;;;;;;4993422;28;20459;-78
2023/05/23 08:19:27;;;;;;;18.23;5.28;;;12.60;99.90;;;;;;5010325;28;20409;-78
2023/05/23 08:21:52;;;;;;;15.57;5.07;;;12.60;99.90;;;;;;4993093;28;20756;-81
2023/05/23 08:24:19;;;;;;;18.83;5.63;;;12.40;99.90;;;;;;5016265;28;20434;-82
2023/05/23 08:26:45;;;;;;;19.77;4.77;;;12.80;99.90;;;;;;5011131;28;20432;-86
2023/05/23 08:29:11;;;;;;;17.83;4.95;;;12.60;99.90;;;;;;5011235;28;20451;-85
2023/05/23 08:31:37;;;;;;;15.80;4.18;;;12.60;99.90;;;;;;5013643;28;21276;-83
2023/05/23 08:34:03;;;;;;;14.23;3.95;;;13.00;99.90;;;;;;4999185;28;20464;-83
2023/05/23 08:36:29;;;;;;;19.33;4.53;;;12.70;99.90;;;;;;5010969;28;21034;-77
2023/05/23 08:38:55;;;;;;;19.75;4.70;;;12.80;99.90;;;;;;5015418;28;20450;-84
2023/05/23 08:41:22;;;;;;;18.33;4.22;;;12.90;99.90;;;;;;5027236;28;20431;-86
2023/05/23 08:43:48;;;;;;;18.65;5.93;;;12.70;99.90;;;;;;5025002;28;21434;-84
2023/05/23 08:46:14;;;;;;;19.27;5.18;;;12.70;99.90;;;;;;4990941;28;20515;-80
2023/05/23 08:48:42;;;;;;;20.23;4.35;;;12.90;99.90;;;;;;4990919;28;20427;-85
2023/05/23 08:51:12;;;;;;;19.65;4.30;;;13.30;99.90;;;;;;5010938;28;20586;-81
2023/05/23 08:53:45;;;;;;;22.23;4.50;;;13.00;99.90;;;;;;5009852;28;20785;-79
2023/05/23 08:56:12;;;;;;;22.75;4.50;;;12.90;99.90;;;;;;5007455;28;20948;-81
2023/05/23 08:58:40;;;;;;;19.50;3.95;;;13.20;99.90;;;;;;5017076;28;20430;-78
2023/05/23 09:01:08;;;;;;;22.20;4.85;;;13.00;99.90;;;;;;4963207;28;20858;-78
2023/05/23 09:03:36;;;;;;;15.40;4.05;;;13.30;99.90;;;;;;5000281;28;20409;-80
2023/05/23 09:06:03;;;;;;;15.32;4.68;;;13.40;99.90;;;;;;4989928;28;20428;-82
2023/05/23 09:08:29;;;;;;;17.77;4.57;;;14.00;99.90;;;;;;4989306;28;20421;-81
2023/05/23 09:10:55;;;;;;;16.55;4.20;;;14.00;99.90;;;;;;5006700;28;20776;-80
2023/05/23 09:13:21;;;;;;;18.58;5.07;;;13.30;99.90;;;;;;4999209;28;20427;-82
2023/05/23 09:16:01;;;;;;;19.42;4.97;;;13.60;99.90;;;;;;4992547;28;20439;-78
2023/05/23 09:18:33;;;;;;;19.13;5.13;;;13.60;99.90;;;;;;4986830;28;20436;-81
2023/05/23 09:20:59;;;;;;;14.25;3.88;;;13.60;99.90;;;;;;5003256;28;20532;-82
2023/05/23 09:23:25;;;;;;;16.70;4.40;;;13.90;99.90;;;;;;4980047;28;20491;-81
2023/05/23 09:25:51;;;;;;;17.20;4.30;;;14.00;99.90;;;;;;5005552;28;20444;-80
2023/05/23 09:28:17;;;;;;;19.83;5.28;;;14.00;99.90;;;;;;5014151;28;20421;-77
2023/05/23 09:30:42;;;;;;;20.50;5.32;;;13.90;99.90;;;;;;5019961;28;20484;-80
2023/05/23 09:33:08;;;;;;;16.90;4.53;;;13.80;99.90;;;;;;5014407;28;20412;-83
2023/05/23 09:35:33;;;;;;;17.10;5.07;;;13.70;99.90;;;;;;5011877;28;20808;-83
2023/05/23 09:37:59;;;;;;;19.48;4.45;;;13.60;99.90;;;;;;5010505;28;20904;-82
2023/05/23 09:40:33;;;;;;;13.32;3.50;;;13.10;99.90;;;;;;4986111;28;20531;-82
2023/05/23 09:43:06;;;;;;;21.77;5.17;;;13.40;99.90;;;;;;5009207;28;20435;-83
2023/05/23 09:45:33;;;;;;;16.27;4.13;;;13.90;99.90;;;;;;4992364;28;20448;-82
2023/05/23 09:47:58;;;;;;;15.20;4.80;;;14.00;99.90;;;;;;5009483;28;20421;-80
2023/05/23 09:50:31;;;;;;;16.57;4.03;;;13.90;99.90;;;;;;5028550;28;20766;-83
2023/05/23 09:52:56;;;;;;;17.15;3.75;;;13.30;99.90;;;;;;5010780;28;20425;-77
2023/05/23 09:55:22;;;;;;;13.93;3.53;;;13.60;99.90;;;;;;5006111;28;20432;-84
2023/05/23 09:57:53;;;;;;;14.53;3.40;;;13.50;99.90;;;;;;4992229;28;20460;-82
2023/05/23 10:00:19;;;;;;;15.37;3.77;;;13.90;99.90;;;;;;5011144;28;20521;-84
2023/05/23 10:03:03;;;;;;;18.55;4.40;;;14.10;99.90;;;;;;5011510;28;20512;-83
2023/05/23 10:05:46;;;;;;;20.65;4.35;;;13.70;99.90;;;;;;5022826;28;20513;-85
2023/05/23 10:08:19;;;;;;;18.13;5.63;;;13.70;99.90;;;;;;5011563;28;20437;-85
2023/05/23 10:10:57;;;;;;;18.52;5.10;;;13.90;99.90;;;;;;5024507;28;20401;-79
2023/05/23 10:13:27;;;;;;;13.90;3.15;;;14.10;99.90;;;;;;5020613;28;20440;-82
2023/05/23 10:16:08;;;;;;;15.55;3.80;;;13.80;99.90;;;;;;5000910;28;20414;-82
2023/05/23 10:18:42;;;;;;;14.63;4.50;;;13.70;99.90;;;;;;4993916;28;20437;-82
2023/05/23 10:21:16;;;;;;;16.10;4.78;;;13.60;99.90;;;;;;5008526;28;20486;-83
2023/05/23 10:23:46;;;;;;;16.45;4.90;;;13.70;99.90;;;;;;5009725;28;20421;-84
2023/05/23 10:26:12;;;;;;;12.20;4.32;;;13.70;99.90;;;;;;5009443;28;20447;-81
2023/05/23 10:28:40;;;;;;;15.80;3.50;;;13.70;99.90;;;;;;5015547;28;20479;-84
2023/05/23 10:31:06;;;;;;;17.08;4.07;;;14.10;99.90;;;;;;5014002;28;20420;-85
2023/05/23 10:33:38;;;;;;;14.20;3.63;;;13.80;99.90;;;;;;5010105;28;20503;-80
2023/05/23 10:36:18;;;;;;;12.77;3.22;;;14.00;99.90;;;;;;5013990;28;20425;-86
2023/05/23 10:38:50;;;;;;;14.90;4.05;;;14.20;99.90;;;;;;5018684;28;20455;-82
2023/05/23 10:41:35;;;;;;;12.70;3.63;;;14.10;99.90;;;;;;5007247;28;20470;-89
2023/05/23 10:44:15;;;;;;;19.02;5.07;;;14.10;99.90;;;;;;5008177;28;20512;-83
2023/05/23 10:46:56;;;;;;;15.98;4.00;;;13.80;99.90;;;;;;5009820;28;20429;-77
2023/05/23 10:49:43;;;;;;;14.50;3.63;;;13.60;99.90;;;;;;5022561;28;20451;-81
2023/05/23 10:52:15;;;;;;;16.98;4.47;;;13.60;99.90;;;;;;5013429;28;20754;-81
2023/05/23 10:54:43;;;;;;;15.30;3.50;;;14.30;99.90;;;;;;5027266;28;20410;-83
2023/05/23 10:57:11;;;;;;;14.80;3.30;;;13.90;99.90;;;;;;5005760;28;20496;-81
2023/05/23 10:59:41;;;;;;;14.43;3.95;;;13.80;99.90;;;;;;5007485;28;20422;-82
2023/05/23 11:02:13;;;;;;;16.20;3.42;;;13.60;99.90;;;;;;4999956;28;20929;-83
2023/05/23 11:04:39;;;;;;;15.82;4.15;;;13.50;99.90;;;;;;5009098;28;20441;-84
2023/05/23 11:07:05;;;;;;;18.58;3.53;;;13.50;99.90;;;;;;4993780;28;20421;-78
2023/05/23 11:09:30;;;;;;;15.48;4.82;;;14.10;99.90;;;;;;5018317;28;20431;-76
2023/05/23 11:12:04;;;;;;;11.23;2.97;;;14.00;99.90;;;;;;5006278;28;20424;-77
2023/05/23 11:14:50;;;;;;;15.10;3.63;;;13.50;99.90;;;;;;5005625;28;20538;-75
2023/05/23 11:17:16;;;;;;;16.52;3.95;;;13.50;99.90;;;;;;5021122;28;20430;-76
2023/05/23 11:20:05;;;;;;;17.02;4.97;;;13.40;99.90;;;;;;5009545;28;20901;-82
2023/05/23 11:22:32;;;;;;;15.43;3.92;;;14.00;99.90;;;;;;5009437;28;20777;-81
2023/05/23 11:24:59;;;;;;;13.05;3.17;;;13.60;99.90;;;;;;5009394;28;20440;-85
2023/05/23 11:27:29;;;;;;;14.38;3.30;;;14.10;99.90;;;;;;5006588;28;20421;-82
2023/05/23 11:30:12;;;;;;;15.30;3.33;;;14.20;99.90;;;;;;5007585;28;20974;-79
2023/05/23 11:32:37;;;;;;;11.25;3.58;;;13.90;99.90;;;;;;5010395;28;20440;-84
2023/05/23 11:35:23;;;;;;;14.57;3.45;;;13.40;99.90;;;;;;5016113;28;20421;-89
2023/05/23 11:37:49;;;;;;;16.98;4.28;;;13.60;99.90;;;;;;5000341;28;20459;-90
2023/05/23 11:40:24;;;;;;;13.90;3.38;;;13.50;99.90;;;;;;4982741;28;20413;-88
2023/05/23 11:42:50;;;;;;;13.98;3.63;;;14.00;99.90;;;;;;5015761;28;20499;-88
2023/05/23 11:45:19;;;;;;;12.98;2.75;;;14.10;99.90;;;;;;5017547;28;20535;-90
2023/05/23 11:47:44;;;;;;;12.10;3.70;;;13.80;99.90;;;;;;5016484;28;20416;-81
2023/05/23 11:50:10;;;;;;;15.90;2.70;;;14.00;99.90;;;;;;5016575;28;20477;-88
2023/05/23 11:52:36;;;;;;;14.93;3.83;;;14.30;99.90;;;;;;5013117;28;20443;-87
2023/05/23 11:55:02;;;;;;;12.13;3.13;;;14.00;99.90;;;;;;5022151;28;20427;-85
2023/05/23 11:57:27;;;;;;;15.03;3.40;;;14.40;99.90;;;;;;5018081;28;20554;-83
2023/05/23 11:59:53;;;;;;;12.68;3.65;;;14.40;99.90;;;;;;5011098;28;20458;-87
2023/05/23 12:02:21;;;;;;;12.98;3.22;;;14.00;99.90;;;;;;5011300;28;20773;-81
2023/05/23 12:04:47;;;;;;;14.23;3.63;;;14.40;99.90;;;;;;5018533;28;20441;-88
2023/05/23 12:07:20;;;;;;;11.77;3.00;;;14.70;99.90;;;;;;4998703;28;20461;-79
2023/05/23 12:09:46;;;;;;;10.93;3.28;;;14.70;99.90;;;;;;4995584;28;20438;-85
2023/05/23 12:12:12;;;;;;;14.13;3.72;;;14.50;99.90;;;;;;4993634;28;20441;-88
2023/05/23 12:14:43;;;;;;;19.58;5.05;;;14.10;99.90;;;;;;5010819;28;20442;-84
2023/05/23 12:17:12;;;;;;;14.90;3.72;;;14.30;99.90;;;;;;4994985;28;20791;-80
2023/05/23 12:19:38;;;;;;;12.30;3.33;;;14.30;99.90;;;;;;4976504;28;20423;-84
2023/05/23 12:22:08;;;;;;;18.67;4.32;;;14.20;99.90;;;;;;5010006;28;20439;-84
2023/05/23 12:24:33;;;;;;;14.63;3.45;;;14.30;99.90;;;;;;4993163;28;20445;-82
2023/05/23 12:27:01;;;;;;;12.20;3.27;;;14.30;99.90;;;;;;4999148;28;20430;-81
2023/05/23 12:29:29;;;;;;;20.57;4.03;;;14.30;99.90;;;;;;4994444;28;20422;-85
2023/05/23 12:31:58;;;;;;;13.25;3.83;;;13.70;99.90;;;;;;4993603;28;20442;-83
2023/05/23 12:34:24;;;;;;;14.85;3.55;;;14.30;99.90;;;;;;5006675;28;20428;-86
2023/05/23 12:36:54;;;;;;;18.20;4.65;;;14.40;99.90;;;;;;5002022;28;20438;-80
2023/05/23 12:39:29;;;;;;;12.40;2.90;;;14.00;99.90;;;;;;4999500;28;20533;-78